createdAt,value
2018-01-10T00:00:56.427Z,13.03
2018-01-10T00:03:26.285Z,13.20
2018-01-10T00:05:56.322Z,12.70
2018-01-10T00:08:25.576Z,10.60
2018-01-10T00:10:54.822Z,12.00
2018-01-10T00:13:24.085Z,12.37
2018-01-10T00:15:53.338Z,10.03
2018-01-10T00:18:22.604Z,12.30
2018-01-10T00:20:51.869Z,11.30
2018-01-10T00:23:21.126Z,11.33
2018-01-10T00:25:51.221Z,10.67
2018-01-10T00:28:21.373Z,12.23
2018-01-10T00:30:51.681Z,10.53
2018-01-10T00:33:20.905Z,11.13
2018-01-10T00:35:50.186Z,12.30
2018-01-10T00:38:19.452Z,12.20
2018-01-10T00:40:48.934Z,10.50
2018-01-10T00:43:18.217Z,11.50
2018-01-10T00:45:47.464Z,11.70
2018-01-10T00:48:17.045Z,11.20
2018-01-10T00:50:47.038Z,11.00
2018-01-10T00:53:16.384Z,11.80
2018-01-10T00:55:45.721Z,11.17
2018-01-10T00:58:15.905Z,11.27
2018-01-10T01:00:45.171Z,11.00
2018-01-10T01:03:14.448Z,12.70
2018-01-10T01:05:44.456Z,11.13
2018-01-10T01:08:13.844Z,15.27
2018-01-10T01:10:43.155Z,11.27
2018-01-10T01:13:12.459Z,10.63
2018-01-10T01:15:42.472Z,13.03
2018-01-10T01:18:11.753Z,14.77
2018-01-10T01:20:41.013Z,15.33
2018-01-10T01:23:10.257Z,15.83
2018-01-10T01:25:39.517Z,15.50
2018-01-10T01:28:08.789Z,15.97
2018-01-10T01:30:38.049Z,16.30
2018-01-10T01:33:07.334Z,14.80
2018-01-10T01:35:36.635Z,15.73
2018-01-10T01:38:05.884Z,15.67
2018-01-10T01:40:35.165Z,17.10
2018-01-10T01:43:04.417Z,17.27
2018-01-10T01:45:33.710Z,17.77
2018-01-10T01:48:02.960Z,16.47
2018-01-10T01:50:32.743Z,17.00
2018-01-10T01:53:02.501Z,16.97
2018-01-10T01:55:31.770Z,16.47
2018-01-10T01:58:01.025Z,16.67
2018-01-10T02:00:30.405Z,16.70
2018-01-10T02:02:59.668Z,16.67
2018-01-10T02:05:29.161Z,16.47
2018-01-10T02:07:58.437Z,17.23
2018-01-10T02:10:28.442Z,17.63
2018-01-10T02:12:57.708Z,17.20
2018-01-10T02:15:26.967Z,19.63
2018-01-10T02:17:56.983Z,18.03
2018-01-10T02:20:26.245Z,17.00
2018-01-10T02:22:55.500Z,18.73
2018-01-10T02:25:24.794Z,17.17
2018-01-10T02:27:59.638Z,15.90
2018-01-10T02:30:28.865Z,19.53
2018-01-10T02:32:58.125Z,18.90
2018-01-10T02:35:27.426Z,16.90
2018-01-10T02:37:56.658Z,15.30
2018-01-10T02:40:25.918Z,15.70
2018-01-10T02:42:55.357Z,15.43
2018-01-10T02:45:24.604Z,18.20
2018-01-10T02:47:53.864Z,14.93
2018-01-10T02:50:23.172Z,16.60
2018-01-10T02:52:52.429Z,18.30
2018-01-10T02:55:21.826Z,18.10
2018-01-10T02:57:52.387Z,18.37
2018-01-10T03:00:21.614Z,17.37
2018-01-10T03:02:51.058Z,17.43
2018-01-10T03:05:21.183Z,17.43
2018-01-10T03:07:51.296Z,19.93
2018-01-10T03:10:20.661Z,18.83
2018-01-10T03:12:50.065Z,18.83
2018-01-10T03:15:19.341Z,18.17
2018-01-10T03:17:48.578Z,18.70
2018-01-10T03:20:17.926Z,18.07
2018-01-10T03:22:47.160Z,19.20
2018-01-10T03:25:16.413Z,17.13
2018-01-10T03:27:46.444Z,15.77
2018-01-10T03:30:16.025Z,17.60
2018-01-10T03:32:45.272Z,13.87
2018-01-10T03:35:14.530Z,17.40
2018-01-10T03:37:44.137Z,18.00
2018-01-10T03:40:14.218Z,14.47
2018-01-10T03:42:43.733Z,14.87
2018-01-10T03:45:13.030Z,14.90
2018-01-10T03:47:42.545Z,14.13
2018-01-10T03:50:11.820Z,15.57
2018-01-10T03:52:41.094Z,15.83
2018-01-10T03:55:10.341Z,16.90
2018-01-10T03:57:39.834Z,15.57
2018-01-10T04:00:09.085Z,16.80
2018-01-10T04:02:39.122Z,14.50
2018-01-10T04:05:08.402Z,15.53
2018-01-10T04:07:37.809Z,15.33
2018-01-10T04:10:07.850Z,16.93
2018-01-10T04:12:37.104Z,17.13
2018-01-10T04:15:06.534Z,15.90
2018-01-10T04:17:35.788Z,17.97
2018-01-10T04:20:05.058Z,15.43
2018-01-10T04:22:34.562Z,16.47
2018-01-10T04:25:03.846Z,15.00
2018-01-10T04:27:33.869Z,16.53
2018-01-10T04:30:03.211Z,16.80
2018-01-10T04:32:32.659Z,18.13
2018-01-10T04:35:02.828Z,18.00
2018-01-10T04:37:32.201Z,16.00
2018-01-10T04:40:02.213Z,16.20
2018-01-10T04:42:31.513Z,17.20
2018-01-10T04:45:00.766Z,17.30
2018-01-10T04:47:30.141Z,16.63
2018-01-10T04:49:59.339Z,17.57
2018-01-10T04:52:28.582Z,17.73
2018-01-10T04:54:57.874Z,16.43
2018-01-10T04:57:27.901Z,16.37
2018-01-10T04:59:57.178Z,17.50
2018-01-10T05:02:26.654Z,17.00
2018-01-10T05:04:56.686Z,18.83
2018-01-10T05:07:25.929Z,18.73
2018-01-10T05:09:55.205Z,16.67
2018-01-10T05:12:25.045Z,16.90
2018-01-10T05:14:54.299Z,17.20
2018-01-10T05:17:23.741Z,16.67
2018-01-10T05:19:52.996Z,16.67
2018-01-10T05:22:22.268Z,17.20
2018-01-10T05:24:51.583Z,18.07
2018-01-10T05:27:21.181Z,17.03
2018-01-10T05:29:50.426Z,16.43
2018-01-10T05:32:19.817Z,20.07
2018-01-10T05:34:49.334Z,17.10
2018-01-10T05:37:19.033Z,18.23
2018-01-10T05:39:49.358Z,18.30
2018-01-10T05:42:18.636Z,17.13
2018-01-10T05:44:49.724Z,18.00
2018-01-10T05:47:19.001Z,18.00
2018-01-10T05:49:48.257Z,16.73
2018-01-10T05:52:17.492Z,18.50
2018-01-10T05:54:47.750Z,18.10
2018-01-10T05:57:17.009Z,17.53
2018-01-10T05:59:46.246Z,18.13
2018-01-10T06:02:15.493Z,18.33
2018-01-10T06:04:44.917Z,19.30
2018-01-10T06:07:14.346Z,17.00
2018-01-10T06:17:25.997Z,16.63
2018-01-10T06:19:55.649Z,15.50
2018-01-10T06:22:25.090Z,17.00
2018-01-10T06:24:56.697Z,14.87
2018-01-10T06:27:26.738Z,15.50
2018-01-10T06:29:56.400Z,16.70
2018-01-10T06:32:33.013Z,17.83
2018-01-10T06:35:22.718Z,17.80
2018-01-10T06:38:11.363Z,17.17
2018-01-10T06:51:34.893Z,13.53
2018-01-10T06:58:13.077Z,18.20
2018-01-10T08:23:29.311Z,9.90
2018-01-10T08:25:58.957Z,12.60
2018-01-10T08:28:29.081Z,12.50
2018-01-10T08:30:59.793Z,12.70
2018-01-10T08:33:29.388Z,12.10
2018-01-10T08:35:58.682Z,12.57
2018-01-10T08:38:27.960Z,12.93
2018-01-10T08:40:57.265Z,11.97
2018-01-10T08:43:27.230Z,10.93
2018-01-10T08:45:56.513Z,11.10
2018-01-10T08:48:25.775Z,8.57
2018-01-10T08:50:55.044Z,8.50
2018-01-10T08:53:24.513Z,10.30
2018-01-10T08:55:53.867Z,8.97
2018-01-10T08:58:23.165Z,8.70
2018-01-10T09:00:53.385Z,8.47
2018-01-10T09:03:23.433Z,9.00
2018-01-10T09:05:53.881Z,7.93
2018-01-10T09:08:23.858Z,8.30
2018-01-10T09:10:53.151Z,7.47
2018-01-10T09:13:22.416Z,5.30
2018-01-10T09:15:51.788Z,7.47
2018-01-10T09:18:21.109Z,6.70
2018-01-10T09:20:51.138Z,7.80
2018-01-10T09:23:20.438Z,5.77
2018-01-10T09:25:49.816Z,5.90
2018-01-10T09:28:19.837Z,8.17
2018-01-10T09:30:49.657Z,8.03
2018-01-10T09:33:18.964Z,7.50
2018-01-10T09:35:48.228Z,7.57
2018-01-10T09:38:17.542Z,7.30
2018-01-10T09:40:47.867Z,6.63
2018-01-10T09:43:17.918Z,6.77
2018-01-10T09:45:47.287Z,8.10
2018-01-10T09:48:17.326Z,8.13
2018-01-10T09:50:46.787Z,7.07
2018-01-10T09:53:16.085Z,7.20
2018-01-10T09:55:45.348Z,8.00
2018-01-10T09:58:14.678Z,7.00
2018-01-10T10:00:43.923Z,7.17
2018-01-10T10:03:13.223Z,7.83
2018-01-10T10:05:42.490Z,7.90
2018-01-10T10:08:11.746Z,6.60
2018-01-10T10:10:41.178Z,5.93
2018-01-10T10:13:10.734Z,5.83
2018-01-10T10:15:40.006Z,6.00
2018-01-10T10:18:09.264Z,6.80
2018-01-10T10:20:38.575Z,6.90
2018-01-10T10:23:07.885Z,6.83
2018-01-10T10:25:37.446Z,7.70
2018-01-10T10:28:06.757Z,7.93
2018-01-10T10:30:36.779Z,7.87
2018-01-10T10:33:06.382Z,8.53
2018-01-10T10:35:35.684Z,5.80
2018-01-10T10:38:06.334Z,6.13
2018-01-10T10:40:36.360Z,10.00
2018-01-10T10:43:05.644Z,10.60
2018-01-10T10:45:35.747Z,6.80
2018-01-10T10:48:05.792Z,7.17
2018-01-10T10:50:35.099Z,10.43
2018-01-10T10:53:04.371Z,7.37
2018-01-10T10:55:33.676Z,7.10
2018-01-10T10:58:03.083Z,6.13
2018-01-10T11:00:32.812Z,5.30
2018-01-10T11:03:02.099Z,4.90
2018-01-10T11:05:31.392Z,6.60
2018-01-10T11:08:00.706Z,5.30
2018-01-10T11:10:30.139Z,6.70
2018-01-10T11:12:59.403Z,6.50
2018-01-10T11:15:28.662Z,5.80
2018-01-10T11:17:58.662Z,6.67
2018-01-10T11:20:27.911Z,6.63
2018-01-10T11:22:57.217Z,7.33
2018-01-10T11:25:26.682Z,7.23
2018-01-10T11:27:55.964Z,6.60
2018-01-10T11:30:25.267Z,7.33
2018-01-10T11:32:55.376Z,7.10
2018-01-10T11:35:24.659Z,7.40
2018-01-10T11:37:54.696Z,8.67
2018-01-10T11:40:24.174Z,7.10
2018-01-10T11:42:53.401Z,6.10
2018-01-10T11:45:22.675Z,6.67
2018-01-10T11:47:52.266Z,6.00
2018-01-10T11:50:21.746Z,5.63
2018-01-10T11:52:50.992Z,5.63
2018-01-10T11:55:20.255Z,4.70
2018-01-10T11:57:49.727Z,4.90
2018-01-10T12:00:19.321Z,4.60
2018-01-10T12:02:48.674Z,6.77
2018-01-10T12:05:18.120Z,6.20
2018-01-10T12:07:47.400Z,5.70
2018-01-10T12:10:16.695Z,4.33
2018-01-10T12:12:46.142Z,4.80
2018-01-10T12:15:15.365Z,4.10
2018-01-10T12:17:44.606Z,4.53
2018-01-10T12:20:13.956Z,4.40
2018-01-10T12:22:43.211Z,4.37
2018-01-10T12:25:12.653Z,4.90
2018-01-10T12:27:42.365Z,5.63
2018-01-10T12:30:12.371Z,5.03
2018-01-10T12:32:41.746Z,3.37
2018-01-10T12:35:10.980Z,3.57
2018-01-10T12:37:40.374Z,3.50
2018-01-10T12:40:10.409Z,3.77
2018-01-10T12:42:40.075Z,3.43
2018-01-10T12:45:09.341Z,2.67
2018-01-10T12:47:38.601Z,3.50
2018-01-10T12:50:08.736Z,4.60
2018-01-10T12:52:38.763Z,3.67
2018-01-10T12:55:08.057Z,4.10
2018-01-10T12:57:37.322Z,3.23
2018-01-10T13:00:06.570Z,3.27
2018-01-10T13:02:36.767Z,3.50
2018-01-10T13:05:06.065Z,3.13
2018-01-10T13:07:35.366Z,3.80
2018-01-10T13:10:05.810Z,2.53
2018-01-10T13:12:35.917Z,2.80
2018-01-10T13:15:05.972Z,2.30
2018-01-10T13:17:35.217Z,2.43
2018-01-10T13:20:04.496Z,2.23
2018-01-10T13:22:33.757Z,2.23
2018-01-10T13:25:03.045Z,2.07
2018-01-10T13:27:33.089Z,3.20
2018-01-10T13:30:02.506Z,3.30
2018-01-10T13:32:32.072Z,2.20
2018-01-10T13:35:01.364Z,2.80
2018-01-10T13:37:31.002Z,2.90
2018-01-10T13:40:00.434Z,2.10
2018-01-10T13:42:29.683Z,2.73
2018-01-10T13:44:58.917Z,2.77
2018-01-10T13:47:28.382Z,2.30
2018-01-10T13:49:57.727Z,2.60
2018-01-10T13:52:27.324Z,2.47
2018-01-10T13:54:57.388Z,2.50
2018-01-10T13:57:26.969Z,4.30
2018-01-10T13:59:56.256Z,4.00
2018-01-10T14:02:25.796Z,2.30
2018-01-10T14:04:55.105Z,1.97
2018-01-10T14:07:25.908Z,2.80
2018-01-10T14:09:55.507Z,3.27
2018-01-10T14:12:25.814Z,2.73
2018-01-10T14:14:55.129Z,2.17
2018-01-10T14:17:25.174Z,1.97
2018-01-10T14:19:54.422Z,2.07
2018-01-10T14:22:23.690Z,2.27
2018-01-10T14:24:53.377Z,1.80
2018-01-10T14:27:23.137Z,2.50
2018-01-10T14:29:52.402Z,2.20
2018-01-10T14:32:21.876Z,2.30
2018-01-10T14:34:51.913Z,2.00
2018-01-10T14:37:21.177Z,2.47
2018-01-10T14:39:50.604Z,2.20
2018-01-10T14:42:20.619Z,2.40
2018-01-10T14:44:49.950Z,2.00
2018-01-10T14:47:19.989Z,1.93
2018-01-10T14:49:49.259Z,2.73
2018-01-10T14:52:18.502Z,1.80
2018-01-10T14:54:47.784Z,1.93
2018-01-10T14:57:17.105Z,1.87
2018-01-10T14:59:46.345Z,1.47
2018-01-10T15:02:15.624Z,2.17
2018-01-10T15:04:44.985Z,1.80
2018-01-10T15:07:14.988Z,2.27
2018-01-10T15:09:44.296Z,2.60
2018-01-10T15:12:13.541Z,3.27
2018-01-10T15:14:43.528Z,2.60
2018-01-10T15:17:12.790Z,3.47
2018-01-10T15:19:42.214Z,2.60
2018-01-10T15:22:12.284Z,2.40
2018-01-10T15:24:42.339Z,2.73
2018-01-10T15:27:11.754Z,3.27
2018-01-10T15:29:41.807Z,4.30
2018-01-10T15:32:11.053Z,2.70
2018-01-10T15:34:40.363Z,2.87
2018-01-10T15:37:09.839Z,3.40
2018-01-10T15:39:39.115Z,2.30
2018-01-10T15:42:09.125Z,2.57
2018-01-10T15:44:38.526Z,3.27
2018-01-10T15:47:08.521Z,4.00
2018-01-10T15:49:38.748Z,2.80
2018-01-10T15:52:10.606Z,2.70
2018-01-10T15:54:42.262Z,3.10
2018-01-10T15:57:13.425Z,2.53
2018-01-10T15:59:44.226Z,3.90
2018-01-10T16:02:15.147Z,2.70
2018-01-10T16:04:46.005Z,2.70
2018-01-10T16:07:16.898Z,3.13
2018-01-10T16:09:47.823Z,3.50
2018-01-10T16:12:18.589Z,3.80
2018-01-10T16:14:49.217Z,3.07
2018-01-10T16:17:20.149Z,3.90
2018-01-10T16:19:50.679Z,3.87
2018-01-10T16:22:21.551Z,2.93
2018-01-10T16:24:53.192Z,3.37
2018-01-10T16:27:24.191Z,2.73
2018-01-10T16:29:54.801Z,3.27
2018-01-10T16:32:26.028Z,2.97
2018-01-10T16:34:57.665Z,4.00
2018-01-10T16:37:28.800Z,10.43
2018-01-10T16:39:59.632Z,23.50
2018-01-10T16:42:30.941Z,17.70
2018-01-10T16:45:01.663Z,11.07
2018-01-10T16:47:31.191Z,7.10
2018-01-10T16:50:01.319Z,4.13
2018-01-10T16:52:31.467Z,3.30
2018-01-10T16:55:01.774Z,2.80
2018-01-10T16:57:31.194Z,3.00
2018-01-10T17:00:00.421Z,3.40
2018-01-10T17:02:30.069Z,3.40
2018-01-10T17:04:59.377Z,3.17
2018-01-10T17:07:28.637Z,3.60
2018-01-10T17:09:57.907Z,3.90
2018-01-10T17:12:27.923Z,2.90
2018-01-10T17:14:57.381Z,3.27
2018-01-10T17:17:26.636Z,4.33
2018-01-10T17:19:55.936Z,3.43
2018-01-10T17:22:25.211Z,3.50
2018-01-10T17:24:54.511Z,2.97
2018-01-10T17:27:23.830Z,4.60
2018-01-10T17:29:53.050Z,3.03
2018-01-10T17:32:22.297Z,3.77
2018-01-10T17:34:51.666Z,3.30
2018-01-10T17:37:20.924Z,3.40
2018-01-10T17:39:50.159Z,2.83
2018-01-10T17:42:20.277Z,3.77
2018-01-10T17:44:50.828Z,3.23
2018-01-10T17:47:20.561Z,6.23
2018-01-10T17:49:49.985Z,3.90
2018-01-10T17:52:19.215Z,3.03
2018-01-10T17:54:49.230Z,3.07
2018-01-10T17:57:18.476Z,3.97
2018-01-10T17:59:47.935Z,4.00
2018-01-10T18:02:17.957Z,2.83
2018-01-10T18:04:47.204Z,4.23
2018-01-10T18:07:16.467Z,4.80
2018-01-10T18:09:45.993Z,6.63
2018-01-10T18:12:15.262Z,4.73
2018-01-10T18:14:44.998Z,4.87
2018-01-10T18:17:14.275Z,5.07
2018-01-10T18:19:43.543Z,5.80
2018-01-10T18:22:13.684Z,5.80
2018-01-10T18:24:43.132Z,3.93
2018-01-10T18:27:12.525Z,4.93
2018-01-10T18:29:41.864Z,4.83
2018-01-10T18:32:11.153Z,3.87
2018-01-10T18:34:40.416Z,4.83
2018-01-10T18:37:09.681Z,3.70
2018-01-10T18:39:39.026Z,5.63
2018-01-10T18:42:08.325Z,5.30
2018-01-10T18:44:37.549Z,4.63
2018-01-10T18:47:06.833Z,5.00
2018-01-10T18:49:36.909Z,4.60
2018-01-10T18:52:06.164Z,4.70
2018-01-10T18:54:35.427Z,4.27
2018-01-10T18:57:05.135Z,3.30
2018-01-10T18:59:34.427Z,4.97
2018-01-10T19:02:03.815Z,4.03
2018-01-10T19:04:33.121Z,3.40
2018-01-10T19:07:02.382Z,3.33
2018-01-10T19:09:31.666Z,2.90
2018-01-10T19:12:00.960Z,3.10
2018-01-10T19:14:31.751Z,3.80
2018-01-10T19:17:01.044Z,3.97
2018-01-10T19:19:30.404Z,9.40
2018-01-10T19:21:59.665Z,12.20
2018-01-10T19:24:28.904Z,4.43
2018-01-10T19:26:58.199Z,6.97
2018-01-10T19:29:27.464Z,8.10
2018-01-10T19:31:57.528Z,31.27
2018-01-10T19:34:26.906Z,39.50
2018-01-10T19:36:56.912Z,28.40
2018-01-10T19:39:26.210Z,3.13
2018-01-10T19:41:55.473Z,6.30
2018-01-10T19:44:24.722Z,14.30
2018-01-10T19:46:54.815Z,12.07
2018-01-10T19:49:24.031Z,5.93
2018-01-10T19:51:53.290Z,3.10
2018-01-10T19:54:22.582Z,3.20
2018-01-10T19:56:51.830Z,4.07
2018-01-10T19:59:21.877Z,3.97
2018-01-10T20:01:51.127Z,4.17
2018-01-10T20:04:20.412Z,5.40
2018-01-10T20:06:49.671Z,6.00
2018-01-10T20:09:19.720Z,3.83
2018-01-10T20:11:48.980Z,4.70
2018-01-10T20:14:18.255Z,3.40
2018-01-10T20:16:47.529Z,3.77
2018-01-10T20:19:16.774Z,3.90
2018-01-10T20:21:46.304Z,4.00
2018-01-10T20:24:16.323Z,4.70
2018-01-10T20:26:45.604Z,5.17
2018-01-10T20:29:14.879Z,4.47
2018-01-10T20:31:44.350Z,6.00
2018-01-10T20:34:13.613Z,4.70
2018-01-10T20:36:42.855Z,4.87
2018-01-10T20:39:12.131Z,4.70
2018-01-10T20:41:49.782Z,4.27
2018-01-10T20:44:19.544Z,3.90
2018-01-10T20:46:49.313Z,4.27
2018-01-10T20:49:18.584Z,4.70
2018-01-10T20:51:47.850Z,4.90
2018-01-10T20:54:17.101Z,5.17
2018-01-10T20:56:46.410Z,6.33
2018-01-10T20:59:15.649Z,4.63
2018-01-10T21:01:44.945Z,3.60
2018-01-10T21:04:15.126Z,5.33
2018-01-10T21:06:44.456Z,5.27
2018-01-10T21:09:13.937Z,4.10
2018-01-10T21:11:43.233Z,4.53
2018-01-10T21:14:12.483Z,5.47
2018-01-10T21:16:41.895Z,4.70
2018-01-10T21:19:11.189Z,4.67
2018-01-10T21:21:40.439Z,5.13
2018-01-10T21:24:09.673Z,5.77
2018-01-10T21:26:38.933Z,5.13
2018-01-10T21:29:08.599Z,5.67
2018-01-10T21:31:37.937Z,5.60
2018-01-10T21:34:07.254Z,5.07
2018-01-10T21:36:36.494Z,5.40
2018-01-10T21:39:05.839Z,5.53
2018-01-10T21:41:35.142Z,5.17
2018-01-10T21:44:04.714Z,6.20
2018-01-10T21:46:34.126Z,5.97
2018-01-10T21:49:03.587Z,7.67
2018-01-10T21:51:33.217Z,6.00
2018-01-10T21:54:03.242Z,6.77
2018-01-10T21:56:32.714Z,6.30
2018-01-10T21:59:01.996Z,7.50
2018-01-10T22:01:31.231Z,6.00
2018-01-10T22:04:00.513Z,6.63
2018-01-10T22:06:29.860Z,5.77
2018-01-10T22:08:59.595Z,5.63
2018-01-10T22:11:28.865Z,5.63
2018-01-10T22:13:58.200Z,7.10
2018-01-10T22:16:28.495Z,6.27
2018-01-10T22:18:57.939Z,6.80
2018-01-10T22:21:27.219Z,5.67
2018-01-10T22:23:56.477Z,7.60
2018-01-10T22:26:25.739Z,7.17
2018-01-10T22:28:54.992Z,6.50
2018-01-10T22:31:24.542Z,6.87
2018-01-10T22:33:53.824Z,7.27
2018-01-10T22:36:23.161Z,7.30
2018-01-10T22:38:52.489Z,7.57
2018-01-10T22:41:21.744Z,8.00
2018-01-10T22:43:51.005Z,7.47
2018-01-10T22:46:20.529Z,7.07
2018-01-10T22:48:50.647Z,7.80
2018-01-10T22:51:20.705Z,8.30
2018-01-10T22:53:50.446Z,9.07
2018-01-10T22:56:19.718Z,7.60
2018-01-10T22:58:48.957Z,7.93
2018-01-10T23:01:18.397Z,8.27
2018-01-10T23:03:48.417Z,9.27
2018-01-10T23:06:17.817Z,7.80
2018-01-10T23:08:47.830Z,8.73
2018-01-10T23:11:17.142Z,8.47
2018-01-10T23:13:47.270Z,7.70
2018-01-10T23:16:16.559Z,7.47
2018-01-10T23:18:45.872Z,8.10
2018-01-10T23:21:15.364Z,7.23
2018-01-10T23:23:44.612Z,9.07
2018-01-10T23:26:13.906Z,7.93
2018-01-10T23:28:43.185Z,7.57
2018-01-10T23:31:13.182Z,7.80
2018-01-10T23:33:42.500Z,7.43
2018-01-10T23:36:12.102Z,6.97
2018-01-10T23:38:41.418Z,7.17
2018-01-10T23:41:11.422Z,8.13
2018-01-10T23:43:41.528Z,8.57
2018-01-10T23:46:10.804Z,7.43
2018-01-10T23:48:40.233Z,7.90
2018-01-10T23:51:10.278Z,7.87
2018-01-10T23:53:39.538Z,7.43
2018-01-10T23:56:08.836Z,6.73
2018-01-10T23:58:38.070Z,6.67
